sensor_id;sensor_type;location;lat;lon;timestamp;pressure;altitude;pressure_sealevel;temperature;humidity
61618;BME280;47518;51.776;9.370;2023-06-22T00:02:18;100559.09;;;19.75;82.33
61618;BME280;47518;51.776;9.370;2023-06-22T00:04:44;100553.88;;;19.67;82.80
61618;BME280;47518;51.776;9.370;2023-06-22T00:07:10;100568.91;;;19.71;82.34
61618;BME280;47518;51.776;9.370;2023-06-22T00:09:35;100566.22;;;19.64;83.01
61618;BME280;47518;51.776;9.370;2023-06-22T00:12:01;100560.81;;;19.58;82.97
61618;BME280;47518;51.776;9.370;2023-06-22T00:14:26;100569.72;;;19.53;83.25
61618;BME280;47518;51.776;9.370;2023-06-22T00:16:52;100559.97;;;19.57;82.84
61618;BME280;47518;51.776;9.370;2023-06-22T00:19:20;100564.53;;;19.45;83.56
61618;BME280;47518;51.776;9.370;2023-06-22T00:21:46;100546.44;;;19.49;83.61
61618;BME280;47518;51.776;9.370;2023-06-22T00:24:12;100549.34;;;19.54;83.26
61618;BME280;47518;51.776;9.370;2023-06-22T00:26:37;100546.91;;;19.46;83.59
61618;BME280;47518;51.776;9.370;2023-06-22T00:29:02;100540.97;;;19.42;83.94
61618;BME280;47518;51.776;9.370;2023-06-22T00:31:28;100540.47;;;19.52;83.46
61618;BME280;47518;51.776;9.370;2023-06-22T00:33:53;100548.47;;;19.60;82.36
61618;BME280;47518;51.776;9.370;2023-06-22T00:36:18;100541.06;;;19.36;83.97
61618;BME280;47518;51.776;9.370;2023-06-22T00:38:44;100550.00;;;19.31;83.62
61618;BME280;47518;51.776;9.370;2023-06-22T00:41:09;100543.84;;;19.36;82.89
61618;BME280;47518;51.776;9.370;2023-06-22T00:43:35;100539.13;;;19.18;84.58
61618;BME280;47518;51.776;9.370;2023-06-22T00:46:00;100527.59;;;19.28;84.49
61618;BME280;47518;51.776;9.370;2023-06-22T00:48:26;100521.69;;;19.42;83.66
61618;BME280;47518;51.776;9.370;2023-06-22T00:50:51;100512.66;;;19.35;83.91
61618;BME280;47518;51.776;9.370;2023-06-22T00:53:19;100508.50;;;19.44;84.14
61618;BME280;47518;51.776;9.370;2023-06-22T00:55:45;100523.41;;;19.62;83.29
61618;BME280;47518;51.776;9.370;2023-06-22T00:58:13;100519.03;;;19.36;84.67
61618;BME280;47518;51.776;9.370;2023-06-22T01:00:40;100513.66;;;19.22;85.31
61618;BME280;47518;51.776;9.370;2023-06-22T01:03:06;100506.81;;;19.43;84.32
61618;BME280;47518;51.776;9.370;2023-06-22T01:05:34;100504.09;;;19.62;83.12
61618;BME280;47518;51.776;9.370;2023-06-22T01:08:07;100505.31;;;19.66;83.58
61618;BME280;47518;51.776;9.370;2023-06-22T01:16:03;100520.38;;;19.27;84.69
61618;BME280;47518;51.776;9.370;2023-06-22T01:18:30;100518.25;;;19.29;83.98
61618;BME280;47518;51.776;9.370;2023-06-22T01:20:57;100512.50;;;19.48;83.49
61618;BME280;47518;51.776;9.370;2023-06-22T01:24:02;100510.97;;;19.52;83.09
61618;BME280;47518;51.776;9.370;2023-06-22T01:26:38;100507.69;;;19.62;83.13
61618;BME280;47518;51.776;9.370;2023-06-22T01:29:10;100502.06;;;19.57;82.20
61618;BME280;47518;51.776;9.370;2023-06-22T01:31:38;100501.94;;;19.64;82.41
61618;BME280;47518;51.776;9.370;2023-06-22T01:34:11;100497.66;;;19.49;83.87
61618;BME280;47518;51.776;9.370;2023-06-22T01:36:38;100495.88;;;19.37;83.43
61618;BME280;47518;51.776;9.370;2023-06-22T01:39:05;100494.28;;;19.11;84.57
61618;BME280;47518;51.776;9.370;2023-06-22T01:41:35;100492.41;;;19.05;85.52
61618;BME280;47518;51.776;9.370;2023-06-22T01:44:03;100492.56;;;19.10;84.87
61618;BME280;47518;51.776;9.370;2023-06-22T01:46:30;100492.13;;;19.13;85.50
61618;BME280;47518;51.776;9.370;2023-06-22T01:48:56;100495.19;;;19.41;83.65
61618;BME280;47518;51.776;9.370;2023-06-22T01:51:21;100498.59;;;19.62;82.48
61618;BME280;47518;51.776;9.370;2023-06-22T01:53:47;100497.56;;;19.38;83.55
61618;BME280;47518;51.776;9.370;2023-06-22T01:56:16;100509.16;;;19.46;83.90
61618;BME280;47518;51.776;9.370;2023-06-22T01:58:48;100506.28;;;19.53;84.41
61618;BME280;47518;51.776;9.370;2023-06-22T02:01:20;100509.47;;;19.57;83.68
61618;BME280;47518;51.776;9.370;2023-06-22T02:03:58;100506.31;;;19.71;81.87
61618;BME280;47518;51.776;9.370;2023-06-22T02:06:33;100506.75;;;19.50;83.10
61618;BME280;47518;51.776;9.370;2023-06-22T02:09:02;100509.69;;;19.37;84.59
61618;BME280;47518;51.776;9.370;2023-06-22T02:11:30;100506.38;;;19.46;83.81
61618;BME280;47518;51.776;9.370;2023-06-22T02:13:57;100510.47;;;19.62;82.85
61618;BME280;47518;51.776;9.370;2023-06-22T02:16:26;100512.59;;;19.60;82.44
61618;BME280;47518;51.776;9.370;2023-06-22T02:18:55;100515.97;;;19.62;82.99
61618;BME280;47518;51.776;9.370;2023-06-22T02:21:22;100516.81;;;19.63;82.95
61618;BME280;47518;51.776;9.370;2023-06-22T02:23:47;100513.50;;;19.72;82.90
61618;BME280;47518;51.776;9.370;2023-06-22T02:26:13;100521.19;;;19.70;82.32
61618;BME280;47518;51.776;9.370;2023-06-22T02:28:38;100524.56;;;19.72;82.93
61618;BME280;47518;51.776;9.370;2023-06-22T02:31:04;100531.75;;;19.73;82.19
61618;BME280;47518;51.776;9.370;2023-06-22T02:33:29;100538.78;;;19.88;81.41
61618;BME280;47518;51.776;9.370;2023-06-22T02:35:55;100529.84;;;19.74;81.82
61618;BME280;47518;51.776;9.370;2023-06-22T02:38:20;100531.16;;;19.71;82.79
61618;BME280;47518;51.776;9.370;2023-06-22T02:40:46;100525.75;;;19.76;82.47
61618;BME280;47518;51.776;9.370;2023-06-22T02:43:12;100533.44;;;19.74;82.96
61618;BME280;47518;51.776;9.370;2023-06-22T02:45:38;100544.34;;;19.69;82.65
61618;BME280;47518;51.776;9.370;2023-06-22T02:48:06;100544.84;;;19.78;82.62
61618;BME280;47518;51.776;9.370;2023-06-22T02:50:31;100538.63;;;19.83;82.55
61618;BME280;47518;51.776;9.370;2023-06-22T02:52:56;100533.66;;;19.91;81.80
61618;BME280;47518;51.776;9.370;2023-06-22T02:55:23;100554.97;;;19.84;82.36
61618;BME280;47518;51.776;9.370;2023-06-22T02:57:48;100553.81;;;19.92;82.78
61618;BME280;47518;51.776;9.370;2023-06-22T03:00:18;100550.88;;;20.05;82.24
61618;BME280;47518;51.776;9.370;2023-06-22T03:02:46;100542.44;;;20.00;82.70
61618;BME280;47518;51.776;9.370;2023-06-22T03:05:13;100529.16;;;20.08;82.34
61618;BME280;47518;51.776;9.370;2023-06-22T03:07:40;100529.88;;;20.04;83.02
61618;BME280;47518;51.776;9.370;2023-06-22T03:10:07;100537.19;;;20.10;82.91
61618;BME280;47518;51.776;9.370;2023-06-22T03:12:34;100535.00;;;20.00;83.21
61618;BME280;47518;51.776;9.370;2023-06-22T03:14:59;100531.16;;;20.01;83.39
61618;BME280;47518;51.776;9.370;2023-06-22T03:17:24;100531.31;;;20.06;84.02
61618;BME280;47518;51.776;9.370;2023-06-22T03:19:50;100532.88;;;20.14;83.64
61618;BME280;47518;51.776;9.370;2023-06-22T03:22:15;100525.44;;;20.03;84.45
61618;BME280;47518;51.776;9.370;2023-06-22T03:24:40;100523.63;;;20.08;83.93
61618;BME280;47518;51.776;9.370;2023-06-22T03:27:06;100527.56;;;20.01;84.42
61618;BME280;47518;51.776;9.370;2023-06-22T03:29:31;100524.84;;;20.13;83.26
61618;BME280;47518;51.776;9.370;2023-06-22T03:31:57;100523.50;;;20.03;84.23
61618;BME280;47518;51.776;9.370;2023-06-22T03:34:22;100515.13;;;20.10;83.49
61618;BME280;47518;51.776;9.370;2023-06-22T03:36:47;100517.00;;;19.98;84.09
61618;BME280;47518;51.776;9.370;2023-06-22T03:39:13;100512.91;;;20.00;83.52
61618;BME280;47518;51.776;9.370;2023-06-22T03:41:38;100509.59;;;20.10;82.83
61618;BME280;47518;51.776;9.370;2023-06-22T03:44:04;100515.06;;;19.98;83.52
61618;BME280;47518;51.776;9.370;2023-06-22T03:46:29;100514.47;;;19.96;83.87
61618;BME280;47518;51.776;9.370;2023-06-22T03:48:55;100520.34;;;19.70;84.44
61618;BME280;47518;51.776;9.370;2023-06-22T03:51:20;100520.06;;;19.53;85.61
61618;BME280;47518;51.776;9.370;2023-06-22T03:53:46;100523.66;;;19.60;85.08
61618;BME280;47518;51.776;9.370;2023-06-22T03:56:11;100523.78;;;19.65;84.94
61618;BME280;47518;51.776;9.370;2023-06-22T03:58:37;100521.78;;;19.72;84.98
61618;BME280;47518;51.776;9.370;2023-06-22T04:01:07;100516.09;;;19.86;84.33
61618;BME280;47518;51.776;9.370;2023-06-22T04:03:36;100513.69;;;20.07;83.24
61618;BME280;47518;51.776;9.370;2023-06-22T04:06:01;100506.56;;;20.00;82.81
61618;BME280;47518;51.776;9.370;2023-06-22T04:08:27;100514.59;;;20.01;82.80
61618;BME280;47518;51.776;9.370;2023-06-22T04:10:52;100523.63;;;20.08;82.92
61618;BME280;47518;51.776;9.370;2023-06-22T04:13:17;100521.59;;;20.04;83.35
61618;BME280;47518;51.776;9.370;2023-06-22T04:15:43;100522.03;;;20.01;84.01
61618;BME280;47518;51.776;9.370;2023-06-22T04:18:08;100513.72;;;20.19;83.36
61618;BME280;47518;51.776;9.370;2023-06-22T04:20:33;100512.63;;;20.20;83.25
61618;BME280;47518;51.776;9.370;2023-06-22T04:22:59;100517.84;;;20.28;82.53
61618;BME280;47518;51.776;9.370;2023-06-22T04:25:24;100521.84;;;20.14;83.03
61618;BME280;47518;51.776;9.370;2023-06-22T04:27:49;100525.69;;;20.13;84.12
61618;BME280;47518;51.776;9.370;2023-06-22T04:30:15;100524.94;;;20.06;83.88
61618;BME280;47518;51.776;9.370;2023-06-22T04:32:41;100533.28;;;20.18;83.58
61618;BME280;47518;51.776;9.370;2023-06-22T04:35:07;100535.44;;;20.16;84.41
61618;BME280;47518;51.776;9.370;2023-06-22T04:37:33;100528.28;;;20.26;83.63
61618;BME280;47518;51.776;9.370;2023-06-22T04:39:59;100527.25;;;20.09;84.23
61618;BME280;47518;51.776;9.370;2023-06-22T04:42:27;100522.50;;;19.98;85.46
61618;BME280;47518;51.776;9.370;2023-06-22T04:44:53;100528.84;;;20.17;84.55
61618;BME280;47518;51.776;9.370;2023-06-22T04:47:18;100527.88;;;20.23;83.86
61618;BME280;47518;51.776;9.370;2023-06-22T04:49:43;100522.78;;;20.08;85.06
61618;BME280;47518;51.776;9.370;2023-06-22T04:52:10;100517.63;;;20.11;85.09
61618;BME280;47518;51.776;9.370;2023-06-22T04:54:37;100520.34;;;20.00;85.49
61618;BME280;47518;51.776;9.370;2023-06-22T04:57:06;100520.63;;;20.10;84.95
61618;BME280;47518;51.776;9.370;2023-06-22T04:59:35;100518.69;;;19.99;85.66
61618;BME280;47518;51.776;9.370;2023-06-22T05:02:02;100529.19;;;20.20;84.83
61618;BME280;47518;51.776;9.370;2023-06-22T05:04:29;100525.00;;;20.18;84.59
61618;BME280;47518;51.776;9.370;2023-06-22T05:06:59;100526.47;;;20.02;85.41
61618;BME280;47518;51.776;9.370;2023-06-22T05:09:26;100517.34;;;20.01;86.25
61618;BME280;47518;51.776;9.370;2023-06-22T05:11:51;100517.56;;;20.18;86.09
61618;BME280;47518;51.776;9.370;2023-06-22T05:14:17;100517.88;;;20.10;85.57
61618;BME280;47518;51.776;9.370;2023-06-22T05:16:43;100515.22;;;20.03;86.57
61618;BME280;47518;51.776;9.370;2023-06-22T05:19:09;100504.00;;;20.17;85.75
61618;BME280;47518;51.776;9.370;2023-06-22T05:21:34;100507.50;;;20.35;84.77
61618;BME280;47518;51.776;9.370;2023-06-22T05:24:00;100502.69;;;20.49;84.13
61618;BME280;47518;51.776;9.370;2023-06-22T05:26:29;100506.22;;;20.38;84.17
61618;BME280;47518;51.776;9.370;2023-06-22T05:28:58;100507.97;;;20.51;84.28
61618;BME280;47518;51.776;9.370;2023-06-22T05:31:23;100500.06;;;20.66;83.24
61618;BME280;47518;51.776;9.370;2023-06-22T05:33:52;100509.78;;;20.80;82.42
61618;BME280;47518;51.776;9.370;2023-06-22T05:36:18;100507.16;;;20.85;81.80
61618;BME280;47518;51.776;9.370;2023-06-22T05:38:45;100508.34;;;20.89;82.28
61618;BME280;47518;51.776;9.370;2023-06-22T05:41:10;100512.16;;;20.53;83.44
61618;BME280;47518;51.776;9.370;2023-06-22T05:43:35;100515.31;;;20.27;85.03
61618;BME280;47518;51.776;9.370;2023-06-22T05:46:01;100513.28;;;20.34;85.20
61618;BME280;47518;51.776;9.370;2023-06-22T05:48:27;100517.88;;;20.40;85.17
61618;BME280;47518;51.776;9.370;2023-06-22T05:50:53;100515.03;;;20.47;85.34
61618;BME280;47518;51.776;9.370;2023-06-22T05:53:18;100516.28;;;20.62;84.33
61618;BME280;47518;51.776;9.370;2023-06-22T05:55:44;100508.25;;;20.73;83.71
61618;BME280;47518;51.776;9.370;2023-06-22T05:58:09;100500.16;;;20.71;83.57
61618;BME280;47518;51.776;9.370;2023-06-22T06:00:35;100507.25;;;20.67;83.30
61618;BME280;47518;51.776;9.370;2023-06-22T06:03:00;100498.13;;;20.78;83.37
61618;BME280;47518;51.776;9.370;2023-06-22T06:05:30;100490.69;;;20.90;82.43
61618;BME280;47518;51.776;9.370;2023-06-22T06:07:55;100496.72;;;20.99;82.48
61618;BME280;47518;51.776;9.370;2023-06-22T06:25:09;100491.22;;;20.04;87.43
61618;BME280;47518;51.776;9.370;2023-06-22T06:27:35;100488.72;;;20.14;87.75
61618;BME280;47518;51.776;9.370;2023-06-22T06:30:00;100497.47;;;20.41;86.14
61618;BME280;47518;51.776;9.370;2023-06-22T06:32:25;100488.25;;;20.47;85.01
61618;BME280;47518;51.776;9.370;2023-06-22T06:34:51;100488.72;;;20.44;85.42
61618;BME280;47518;51.776;9.370;2023-06-22T06:37:16;100489.56;;;20.45;85.58
61618;BME280;47518;51.776;9.370;2023-06-22T06:39:42;100485.38;;;20.54;85.68
61618;BME280;47518;51.776;9.370;2023-06-22T06:42:25;100495.97;;;20.68;85.48
61618;BME280;47518;51.776;9.370;2023-06-22T06:44:54;100484.94;;;20.92;84.62
61618;BME280;47518;51.776;9.370;2023-06-22T06:47:20;100485.53;;;20.94;84.57
61618;BME280;47518;51.776;9.370;2023-06-22T06:49:45;100489.09;;;21.18;83.45
61618;BME280;47518;51.776;9.370;2023-06-22T06:52:11;100492.25;;;21.33;81.50
61618;BME280;47518;51.776;9.370;2023-06-22T06:54:36;100494.78;;;21.23;81.65
61618;BME280;47518;51.776;9.370;2023-06-22T06:57:02;100493.69;;;21.24;83.03
61618;BME280;47518;51.776;9.370;2023-06-22T06:59:28;100499.34;;;21.29;82.91
61618;BME280;47518;51.776;9.370;2023-06-22T07:01:55;100506.22;;;21.26;83.17
61618;BME280;47518;51.776;9.370;2023-06-22T07:04:21;100503.19;;;21.28;83.30
61618;BME280;47518;51.776;9.370;2023-06-22T07:06:46;100512.47;;;21.34;82.82
61618;BME280;47518;51.776;9.370;2023-06-22T07:09:11;100514.38;;;21.33;83.18
61618;BME280;47518;51.776;9.370;2023-06-22T07:11:37;100512.81;;;21.37;82.59
61618;BME280;47518;51.776;9.370;2023-06-22T07:14:02;100505.69;;;21.53;82.47
61618;BME280;47518;51.776;9.370;2023-06-22T07:16:27;100512.06;;;21.65;81.88
61618;BME280;47518;51.776;9.370;2023-06-22T07:18:55;100508.81;;;21.57;82.37
61618;BME280;47518;51.776;9.370;2023-06-22T07:21:20;100511.31;;;21.70;81.54
61618;BME280;47518;51.776;9.370;2023-06-22T07:23:45;100512.59;;;21.79;81.85
61618;BME280;47518;51.776;9.370;2023-06-22T07:26:11;100509.25;;;21.77;82.13
61618;BME280;47518;51.776;9.370;2023-06-22T07:28:38;100507.16;;;21.84;81.88
61618;BME280;47518;51.776;9.370;2023-06-22T07:31:05;100497.63;;;21.92;81.46
61618;BME280;47518;51.776;9.370;2023-06-22T07:33:31;100493.59;;;21.99;81.87
61618;BME280;47518;51.776;9.370;2023-06-22T07:35:56;100500.66;;;21.90;82.46
61618;BME280;47518;51.776;9.370;2023-06-22T07:38:22;100494.03;;;21.91;82.82
61618;BME280;47518;51.776;9.370;2023-06-22T07:40:50;100502.91;;;21.93;82.31
61618;BME280;47518;51.776;9.370;2023-06-22T07:43:16;100490.75;;;22.06;81.64
61618;BME280;47518;51.776;9.370;2023-06-22T07:45:48;100492.19;;;21.97;82.29
61618;BME280;47518;51.776;9.370;2023-06-22T07:48:17;100500.75;;;21.95;82.30
61618;BME280;47518;51.776;9.370;2023-06-22T07:50:42;100491.72;;;22.00;81.99
61618;BME280;47518;51.776;9.370;2023-06-22T07:53:07;100494.13;;;21.96;82.13
61618;BME280;47518;51.776;9.370;2023-06-22T07:55:32;100490.38;;;22.02;82.33
61618;BME280;47518;51.776;9.370;2023-06-22T07:57:58;100491.91;;;22.10;82.07
61618;BME280;47518;51.776;9.370;2023-06-22T08:00:23;100487.22;;;22.10;82.76
61618;BME280;47518;51.776;9.370;2023-06-22T08:02:49;100490.69;;;22.18;82.81
61618;BME280;47518;51.776;9.370;2023-06-22T08:05:15;100489.25;;;22.15;82.45
61618;BME280;47518;51.776;9.370;2023-06-22T08:07:40;100488.59;;;22.25;82.50
61618;BME280;47518;51.776;9.370;2023-06-22T08:10:09;100490.53;;;22.24;82.08
61618;BME280;47518;51.776;9.370;2023-06-22T08:12:35;100483.16;;;22.30;82.06
61618;BME280;47518;51.776;9.370;2023-06-22T08:15:00;100486.25;;;22.33;82.37
61618;BME280;47518;51.776;9.370;2023-06-22T08:17:28;100488.38;;;22.43;81.64
61618;BME280;47518;51.776;9.370;2023-06-22T08:19:54;100488.69;;;22.30;81.59
61618;BME280;47518;51.776;9.370;2023-06-22T08:22:19;100485.53;;;22.38;81.39
61618;BME280;47518;51.776;9.370;2023-06-22T08:24:44;100481.16;;;22.42;81.01
61618;BME280;47518;51.776;9.370;2023-06-22T08:27:12;100485.03;;;22.58;80.05
61618;BME280;47518;51.776;9.370;2023-06-22T08:29:39;100484.84;;;22.48;81.46
61618;BME280;47518;51.776;9.370;2023-06-22T08:32:05;100473.00;;;22.52;81.25
61618;BME280;47518;51.776;9.370;2023-06-22T08:34:30;100456.81;;;22.61;81.81
61618;BME280;47518;51.776;9.370;2023-06-22T08:36:56;100456.72;;;22.73;81.59
61618;BME280;47518;51.776;9.370;2023-06-22T08:39:21;100451.50;;;22.76;81.63
61618;BME280;47518;51.776;9.370;2023-06-22T08:41:47;100456.34;;;23.19;80.76
61618;BME280;47518;51.776;9.370;2023-06-22T08:44:20;100450.34;;;23.49;79.51
61618;BME280;47518;51.776;9.370;2023-06-22T08:46:49;100448.09;;;23.68;77.86
61618;BME280;47518;51.776;9.370;2023-06-22T08:49:14;100440.44;;;23.75;76.25
61618;BME280;47518;51.776;9.370;2023-06-22T08:51:40;100440.59;;;23.91;76.04
61618;BME280;47518;51.776;9.370;2023-06-22T08:54:05;100438.44;;;23.98;75.61
61618;BME280;47518;51.776;9.370;2023-06-22T08:56:31;100435.28;;;24.16;74.22
61618;BME280;47518;51.776;9.370;2023-06-22T08:58:56;100443.66;;;24.48;72.98
61618;BME280;47518;51.776;9.370;2023-06-22T09:01:21;100436.00;;;24.65;72.41
61618;BME280;47518;51.776;9.370;2023-06-22T09:03:49;100435.19;;;25.02;70.21
61618;BME280;47518;51.776;9.370;2023-06-22T09:06:21;100427.53;;;25.29;67.56
61618;BME280;47518;51.776;9.370;2023-06-22T09:08:47;100434.88;;;25.56;67.37
61618;BME280;47518;51.776;9.370;2023-06-22T09:11:12;100418.44;;;25.54;66.35
61618;BME280;47518;51.776;9.370;2023-06-22T09:13:38;100429.03;;;25.52;66.11
61618;BME280;47518;51.776;9.370;2023-06-22T09:16:03;100432.13;;;25.61;65.94
61618;BME280;47518;51.776;9.370;2023-06-22T09:18:28;100417.78;;;25.32;66.20
61618;BME280;47518;51.776;9.370;2023-06-22T09:20:54;100407.31;;;25.54;65.52
61618;BME280;47518;51.776;9.370;2023-06-22T09:23:20;100399.34;;;25.88;64.33
61618;BME280;47518;51.776;9.370;2023-06-22T09:25:45;100394.09;;;26.12;63.14
61618;BME280;47518;51.776;9.370;2023-06-22T09:28:13;100401.38;;;26.39;62.62
61618;BME280;47518;51.776;9.370;2023-06-22T09:30:38;100395.81;;;26.44;61.78
61618;BME280;47518;51.776;9.370;2023-06-22T09:33:03;100395.22;;;26.06;62.12
61618;BME280;47518;51.776;9.370;2023-06-22T09:35:28;100398.50;;;25.93;61.85
61618;BME280;47518;51.776;9.370;2023-06-22T09:37:54;100400.25;;;26.50;60.83
61618;BME280;47518;51.776;9.370;2023-06-22T09:40:19;100397.19;;;26.52;60.53
61618;BME280;47518;51.776;9.370;2023-06-22T09:42:45;100390.97;;;26.85;57.46
61618;BME280;47518;51.776;9.370;2023-06-22T09:45:11;100382.97;;;26.58;57.77
61618;BME280;47518;51.776;9.370;2023-06-22T09:47:36;100380.69;;;26.81;57.90
61618;BME280;47518;51.776;9.370;2023-06-22T09:50:01;100380.84;;;27.20;56.95
61618;BME280;47518;51.776;9.370;2023-06-22T09:52:27;100376.91;;;27.31;56.65
61618;BME280;47518;51.776;9.370;2023-06-22T09:54:52;100372.94;;;27.47;56.78
61618;BME280;47518;51.776;9.370;2023-06-22T09:57:17;100365.59;;;27.61;56.57
61618;BME280;47518;51.776;9.370;2023-06-22T09:59:42;100363.53;;;27.82;55.88
61618;BME280;47518;51.776;9.370;2023-06-22T10:02:08;100365.72;;;27.90;55.16
61618;BME280;47518;51.776;9.370;2023-06-22T10:04:34;100362.56;;;28.02;55.25
61618;BME280;47518;51.776;9.370;2023-06-22T10:06:59;100357.63;;;28.23;54.59
61618;BME280;47518;51.776;9.370;2023-06-22T10:09:25;100345.03;;;28.26;55.35
61618;BME280;47518;51.776;9.370;2023-06-22T10:11:50;100352.25;;;28.37;54.09
61618;BME280;47518;51.776;9.370;2023-06-22T10:14:15;100353.00;;;28.42;55.31
61618;BME280;47518;51.776;9.370;2023-06-22T10:16:41;100338.69;;;28.49;55.02
61618;BME280;47518;51.776;9.370;2023-06-22T10:19:07;100346.84;;;28.69;54.09
61618;BME280;47518;51.776;9.370;2023-06-22T10:21:32;100345.75;;;28.41;53.62
61618;BME280;47518;51.776;9.370;2023-06-22T10:23:58;100347.41;;;28.71;53.74
61618;BME280;47518;51.776;9.370;2023-06-22T10:26:26;100345.03;;;28.84;53.04
61618;BME280;47518;51.776;9.370;2023-06-22T10:28:54;100338.28;;;28.90;53.26
61618;BME280;47518;51.776;9.370;2023-06-22T10:31:19;100339.97;;;28.62;52.86
61618;BME280;47518;51.776;9.370;2023-06-22T10:33:44;100331.53;;;28.91;52.94
61618;BME280;47518;51.776;9.370;2023-06-22T10:36:11;100325.56;;;29.21;52.88
61618;BME280;47518;51.776;9.370;2023-06-22T10:38:36;100327.53;;;29.40;54.50
61618;BME280;47518;51.776;9.370;2023-06-22T10:41:01;100317.47;;;29.20;52.23
61618;BME280;47518;51.776;9.370;2023-06-22T10:43:27;100314.97;;;29.37;53.37
61618;BME280;47518;51.776;9.370;2023-06-22T10:45:53;100308.16;;;29.24;52.34
61618;BME280;47518;51.776;9.370;2023-06-22T10:48:18;100299.59;;;29.16;52.21
61618;BME280;47518;51.776;9.370;2023-06-22T10:50:43;100307.53;;;29.51;52.63
61618;BME280;47518;51.776;9.370;2023-06-22T10:53:08;100292.00;;;29.78;51.19
61618;BME280;47518;51.776;9.370;2023-06-22T10:55:34;100286.56;;;30.19;49.34
61618;BME280;47518;51.776;9.370;2023-06-22T10:57:59;100275.81;;;30.54;49.22
61618;BME280;47518;51.776;9.370;2023-06-22T11:00:24;100280.94;;;30.65;48.31
61618;BME280;47518;51.776;9.370;2023-06-22T11:02:50;100283.91;;;30.55;48.70
61618;BME280;47518;51.776;9.370;2023-06-22T11:05:16;100280.53;;;30.72;48.01
61618;BME280;47518;51.776;9.370;2023-06-22T11:07:42;100265.16;;;30.83;46.90
61618;BME280;47518;51.776;9.370;2023-06-22T11:10:08;100262.47;;;31.42;45.73
61618;BME280;47518;51.776;9.370;2023-06-22T11:12:34;100261.00;;;31.80;44.61
61618;BME280;47518;51.776;9.370;2023-06-22T11:14:59;100263.31;;;31.64;43.97
61618;BME280;47518;51.776;9.370;2023-06-22T11:17:25;100262.94;;;31.57;44.97
61618;BME280;47518;51.776;9.370;2023-06-22T11:19:50;100261.81;;;31.45;45.57
61618;BME280;47518;51.776;9.370;2023-06-22T11:22:15;100263.63;;;31.13;45.47
61618;BME280;47518;51.776;9.370;2023-06-22T11:24:41;100259.22;;;30.85;45.53
61618;BME280;47518;51.776;9.370;2023-06-22T11:27:06;100253.19;;;30.77;46.17
61618;BME280;47518;51.776;9.370;2023-06-22T11:29:32;100240.28;;;31.04;45.87
61618;BME280;47518;51.776;9.370;2023-06-22T11:31:57;100238.09;;;30.87;45.62
61618;BME280;47518;51.776;9.370;2023-06-22T11:34:22;100238.16;;;31.59;45.06
61618;BME280;47518;51.776;9.370;2023-06-22T11:36:48;100237.19;;;31.42;45.03
61618;BME280;47518;51.776;9.370;2023-06-22T11:39:13;100228.84;;;32.26;43.37
61618;BME280;47518;51.776;9.370;2023-06-22T11:41:40;100218.59;;;32.61;42.65
61618;BME280;47518;51.776;9.370;2023-06-22T11:44:05;100209.38;;;31.76;44.34
61618;BME280;47518;51.776;9.370;2023-06-22T11:46:32;100212.06;;;31.23;44.47
61618;BME280;47518;51.776;9.370;2023-06-22T11:48:57;100200.19;;;31.12;46.11
61618;BME280;47518;51.776;9.370;2023-06-22T11:51:23;100198.72;;;30.65;47.79
61618;BME280;47518;51.776;9.370;2023-06-22T11:53:48;100198.41;;;30.53;47.74
61618;BME280;47518;51.776;9.370;2023-06-22T11:56:13;100192.78;;;30.53;47.17
61618;BME280;47518;51.776;9.370;2023-06-22T11:58:39;100186.47;;;30.47;46.51
61618;BME280;47518;51.776;9.370;2023-06-22T12:01:04;100183.03;;;30.23;47.54
61618;BME280;47518;51.776;9.370;2023-06-22T12:03:30;100183.22;;;30.54;48.30
61618;BME280;47518;51.776;9.370;2023-06-22T12:05:55;100182.00;;;30.60;48.57
61618;BME280;47518;51.776;9.370;2023-06-22T12:08:21;100186.47;;;30.47;47.54
61618;BME280;47518;51.776;9.370;2023-06-22T12:10:46;100188.22;;;30.15;47.61
61618;BME280;47518;51.776;9.370;2023-06-22T12:13:12;100175.88;;;29.98;48.51
61618;BME280;47518;51.776;9.370;2023-06-22T12:15:37;100168.44;;;29.60;48.67
61618;BME280;47518;51.776;9.370;2023-06-22T12:18:03;100162.13;;;29.55;48.67
61618;BME280;47518;51.776;9.370;2023-06-22T12:20:28;100162.00;;;29.60;49.48
61618;BME280;47518;51.776;9.370;2023-06-22T12:22:53;100163.09;;;29.45;48.98
61618;BME280;47518;51.776;9.370;2023-06-22T12:25:21;100165.66;;;29.42;49.24
61618;BME280;47518;51.776;9.370;2023-06-22T12:27:47;100162.66;;;29.19;49.59
61618;BME280;47518;51.776;9.370;2023-06-22T12:30:12;100163.72;;;29.04;51.34
61618;BME280;47518;51.776;9.370;2023-06-22T12:32:37;100164.78;;;28.90;50.45
61618;BME280;47518;51.776;9.370;2023-06-22T12:35:03;100160.91;;;28.86;51.05
61618;BME280;47518;51.776;9.370;2023-06-22T12:37:29;100166.84;;;28.60;51.33
61618;BME280;47518;51.776;9.370;2023-06-22T12:39:56;100167.69;;;28.61;51.06
61618;BME280;47518;51.776;9.370;2023-06-22T12:42:22;100172.16;;;28.38;51.48
61618;BME280;47518;51.776;9.370;2023-06-22T12:44:47;100180.47;;;28.43;52.24
61618;BME280;47518;51.776;9.370;2023-06-22T12:47:12;100178.81;;;28.42;51.24
61618;BME280;47518;51.776;9.370;2023-06-22T12:49:39;100173.56;;;28.35;52.09
61618;BME280;47518;51.776;9.370;2023-06-22T12:52:11;100146.44;;;28.36;52.08
61618;BME280;47518;51.776;9.370;2023-06-22T12:54:37;100141.47;;;28.33;51.91
61618;BME280;47518;51.776;9.370;2023-06-22T12:57:02;100157.25;;;28.18;52.70
61618;BME280;47518;51.776;9.370;2023-06-22T12:59:28;100170.75;;;28.11;52.74
61618;BME280;47518;51.776;9.370;2023-06-22T13:01:53;100174.78;;;28.00;55.59
61618;BME280;47518;51.776;9.370;2023-06-22T13:04:19;100188.28;;;27.93;56.00
61618;BME280;47518;51.776;9.370;2023-06-22T13:06:45;100190.25;;;27.93;57.02